Jfe Mercury — JD2719 — position and weather

sailwx.info

Track history (hours):
 
Tides and Currents Weather Stations Pressure Air Temp Water Temp Dewpoint Dewpoint Depression Visibility Wind Speed Wind Dir Waves Ship Positions

Jfe Mercury

Last reported at 2017-Dec-18 04:51 UTC. Time now 2017-Dec-18 05:21 UTC.
Position N 34°46' E 139°06'.

Length 152 m; draft 4.1 m.

Type: Cargo ship. MMSI: 431000822.

Date/timePositionNaut miles runAvg speedWind from/ knotsBaromVisibWave heightAir tempDewpointWater temp
2017-Dec-18 04:51N 34°46' E 139°06'910.4
2017-Dec-18 04:02N 34°53' E 139°12'0 9.8
2017-Dec-18 04:00N 34°53' E 139°13'610.1
2017-Dec-18 03:27N 34°56' E 139°19'510.3
2017-Dec-18 03:00N 34°58' E 139°23'510.1
2017-Dec-18 02:31N 35°00' E 139°29'510.3
2017-Dec-18 02:01N 35°03' E 139°34'510.7
2017-Dec-18 01:30N 35°06' E 139°40'510.8
2017-Dec-18 01:00N 35°10' E 139°44'611.0
2017-Dec-18 00:30N 35°15' E 139°46'611.5
2017-Dec-18 00:01N 35°20' E 139°42'611.0
2017-Dec-17 23:31N 35°25' E 139°43'3 4.9
2017-Dec-17 22:58N 35°28' E 139°43'0 0.0
2017-Dec-17 22:28N 35°28' E 139°43'0 0.0
2017-Dec-17 22:01N 35°28' E 139°43'0 0.0
2017-Dec-17 21:28N 35°28' E 139°43'0 0.0
2017-Dec-17 20:58N 35°28' E 139°43'0 0.0
2017-Dec-17 20:28N 35°28' E 139°43'0 0.0
2017-Dec-17 19:58N 35°28' E 139°43'0 0.0
2017-Dec-17 19:28N 35°28' E 139°43'0 0.0
2017-Dec-17 18:58N 35°28' E 139°43'0 0.0
2017-Dec-17 18:28N 35°28' E 139°43'0 0.0
2017-Dec-17 17:58N 35°28' E 139°43'0 0.0
2017-Dec-17 17:28N 35°28' E 139°43'0 0.0
2017-Dec-17 16:59N 35°28' E 139°43'2 4.2
2017-Dec-17 16:31N 35°27' E 139°45'611.2
2017-Dec-17 16:01N 35°29' E 139°51'511.0
2017-Dec-17 15:31N 35°32' E 139°57'510.3
2017-Dec-17 15:00N 35°34' E 140°03'3 5.9
2017-Dec-17 14:30N 35°33' E 140°07'0 0.0
2017-Dec-17 13:55N 35°33' E 140°07'0 0.0
2017-Dec-17 12:43N 35°33' E 140°07'0 0.0
2017-Dec-17 12:25N 35°33' E 140°07'0 0.0
2017-Dec-17 11:01N 35°33' E 140°07'0 0.0
2017-Dec-17 10:55N 35°33' E 140°07'0 0.0
2017-Dec-17 10:13N 35°33' E 140°07'0 0.0
2017-Dec-17 09:55N 35°33' E 140°07'0 0.0
2017-Dec-17 09:01N 35°33' E 140°07'0 0.0
2017-Dec-17 08:37N 35°33' E 140°07'0 0.0
2017-Dec-17 08:25N 35°33' E 140°07'0 0.0
2017-Dec-17 07:31N 35°33' E 140°07'0 0.0
2017-Dec-17 07:07N 35°33' E 140°07'0 0.0
2017-Dec-17 06:37N 35°33' E 140°07'0 0.0
2017-Dec-17 06:25N 35°33' E 140°07'0 0.0
2017-Dec-17 05:49N 35°33' E 140°07'0 0.0
2017-Dec-17 05:19N 35°33' E 140°07'0 0.0
2017-Dec-17 04:55N 35°33' E 140°07'0 0.0
2017-Dec-17 04:28N 35°33' E 140°07'2 4.9
2017-Dec-17 04:00N 35°33' E 140°04'4 8.2
2017-Dec-17 03:30N 35°33' E 139°59'4 7.9
2017-Dec-17 03:00N 35°31' E 139°55'4 7.8
2017-Dec-17 02:30N 35°28' E 139°51'4 7.9
2017-Dec-17 02:00N 35°26' E 139°47'4 8.2
2017-Dec-17 01:30N 35°24' E 139°43'4 7.2
2017-Dec-17 01:01N 35°23' E 139°38'0 0.2
2017-Dec-17 00:29N 35°23' E 139°38'0 0.0
2017-Dec-16 23:59N 35°23' E 139°38'0 0.0
2017-Dec-16 23:29N 35°23' E 139°38'0 0.0
2017-Dec-16 22:59N 35°23' E 139°38'0 0.4
2017-Dec-16 22:30N 35°23' E 139°38'3 6.5
2017-Dec-16 22:00N 35°22' E 139°42'1 2.5
2017-Dec-16 21:29N 35°22' E 139°44'0 0.1
2017-Dec-16 20:59N 35°22' E 139°44'0 0.0
2017-Dec-16 20:29N 35°22' E 139°44'0 0.0
2017-Dec-16 19:59N 35°22' E 139°44'0 0.0
2017-Dec-16 19:29N 35°22' E 139°44'0 0.0
2017-Dec-16 18:59N 35°22' E 139°44'0 0.2
2017-Dec-16 18:29N 35°22' E 139°44'0 0.1
2017-Dec-16 17:59N 35°22' E 139°44'0 0.0
2017-Dec-16 17:29N 35°22' E 139°44'0 0.0
2017-Dec-16 16:59N 35°22' E 139°44'0 0.0
2017-Dec-16 16:29N 35°22' E 139°44'0 0.0
2017-Dec-16 15:59N 35°22' E 139°44'0 0.0
2017-Dec-16 15:29N 35°22' E 139°44'0 0.1
2017-Dec-16 14:59N 35°22' E 139°44'0 0.1
2017-Dec-16 14:29N 35°22' E 139°44'0 0.1
2017-Dec-16 13:59N 35°22' E 139°44'0 0.1
2017-Dec-16 13:29N 35°22' E 139°44'0 0.2
2017-Dec-16 12:59N 35°22' E 139°44'0 0.1
2017-Dec-16 12:29N 35°22' E 139°44'0 0.0
2017-Dec-16 11:59N 35°22' E 139°44'0 0.1
2017-Dec-16 11:29N 35°22' E 139°44'0 0.0
2017-Dec-16 10:59N 35°22' E 139°44'0 0.1
2017-Dec-16 10:29N 35°22' E 139°44'0 0.0
2017-Dec-16 09:59N 35°22' E 139°44'0 0.0
2017-Dec-16 09:29N 35°22' E 139°44'0 0.0
2017-Dec-16 08:59N 35°22' E 139°44'0 0.0
2017-Dec-16 08:26N 35°22' E 139°44'0 0.0
2017-Dec-16 07:59N 35°22' E 139°44'0 0.1
2017-Dec-16 07:29N 35°22' E 139°44'0 0.6
2017-Dec-16 07:00N 35°22' E 139°44'4 9.0
2017-Dec-16 06:31N 35°18' E 139°45'510.3
2017-Dec-16 06:01N 35°13' E 139°47'510.9
2017-Dec-16 05:31N 35°07' E 139°45'510.9
2017-Dec-16 05:00N 35°03' E 139°41'611.4
2017-Dec-16 04:30N 34°59' E 139°36'612.2
2017-Dec-16 03:59N 34°56' E 139°30'612.4
2017-Dec-16 03:30N 34°52' E 139°24'612.5
2017-Dec-16 03:00N 34°49' E 139°18'612.2
2017-Dec-16 02:29N 34°45' E 139°12'611.7
2017-Dec-16 02:01N 34°41' E 139°06'611.5
2017-Dec-16 01:28N 34°37' E 139°00'612.8
2017-Dec-16 01:01N 34°35' E 138°54'611.9
2017-Dec-16 00:30N 34°34' E 138°47'611.6
2017-Dec-15 23:58N 34°34' E 138°39'611.4
2017-Dec-15 23:29N 34°33' E 138°32'611.3
2017-Dec-15 22:59N 34°33' E 138°26'611.7
2017-Dec-15 22:30N 34°33' E 138°19'611.9
2017-Dec-15 21:59N 34°33' E 138°11'612.0
2017-Dec-15 21:29N 34°33' E 138°04'611.6
2017-Dec-15 20:58N 34°33' E 137°57'711.3
2017-Dec-15 20:19N 34°33' E 137°48'2010.8
2017-Dec-15 18:29N 34°32' E 137°24'510.6
2017-Dec-15 18:00N 34°32' E 137°18'510.6
2017-Dec-15 17:30N 34°32' E 137°11'710.2
2017-Dec-15 16:50N 34°32' E 137°03'3 9.2
2017-Dec-15 16:30N 34°34' E 136°60'5 9.1
2017-Dec-15 16:00N 34°38' E 136°58'510.4
2017-Dec-15 15:30N 34°43' E 136°59'510.8
2017-Dec-15 15:01N 34°48' E 136°57'3 1.4
2017-Dec-15 12:36N 34°52' E 136°56'0 0.0
2017-Dec-15 12:18N 34°52' E 136°56'0 0.0
2017-Dec-15 12:00N 34°52' E 136°56'0 0.0
2017-Dec-15 10:30N 34°52' E 136°56'0 0.0
2017-Dec-15 10:00N 34°52' E 136°56'0 0.0
2017-Dec-15 09:30N 34°52' E 136°56'0 0.0
2017-Dec-15 08:54N 34°52' E 136°56'0 0.0
2017-Dec-15 08:30N 34°52' E 136°56'0 0.0
2017-Dec-15 08:00N 34°52' E 136°56'2 4.2
2017-Dec-15 07:30N 34°50' E 136°57'610.5
2017-Dec-15 06:58N 34°45' E 136°59'510.6
2017-Dec-15 06:29N 34°39' E 136°59'510.2
2017-Dec-15 06:00N 34°34' E 136°60'105 8.1
2017-Dec-14 17:03N 33°45' E 135°08'311.5
2017-Dec-14 16:47N 33°47' E 135°05'411.3
2017-Dec-14 16:26N 33°50' E 135°02'511.4
2017-Dec-14 16:00N 33°54' E 134°59'1211.6
2017-Dec-14 15:00N 34°03' E 134°50'611.6
2017-Dec-14 14:31N 34°07' E 134°45'612.2
2017-Dec-14 14:00N 34°12' E 134°41'612.1
2017-Dec-14 13:30N 34°16' E 134°36'611.4
2017-Dec-14 13:00N 34°18' E 134°29'611.3
2017-Dec-14 12:30N 34°20' E 134°23'1011.4
2017-Dec-14 11:39N 34°24' E 134°12'211.6
2017-Dec-14 11:28N 34°25' E 134°10'5 0.1
2017-Dec-12 09:04N 34°27' E 134°04'9 9.7
2017-Dec-12 08:08N 34°24' E 134°14'210.3
2017-Dec-12 07:58N 34°24' E 134°16'510.3
2017-Dec-12 07:29N 34°25' E 134°22'510.5
2017-Dec-12 07:00N 34°27' E 134°28'510.5
2017-Dec-12 06:30N 34°29' E 134°34'510.4
2017-Dec-12 06:00N 34°31' E 134°39'510.4
2017-Dec-12 05:30N 34°33' E 134°45'510.5
2017-Dec-12 05:00N 34°35' E 134°51'510.4
2017-Dec-12 04:30N 34°37' E 134°57'5 9.2
2017-Dec-12 04:00N 34°36' E 135°03'5 9.1
2017-Dec-12 03:30N 34°36' E 135°08'5 9.7
2017-Dec-12 03:00N 34°36' E 135°14'5 9.8
2017-Dec-12 02:30N 34°37' E 135°20'5 9.1
2017-Dec-12 02:00N 34°36' E 135°25'0 0.6
2017-Dec-12 01:29N 34°35' E 135°26'0 0.0
2017-Dec-12 00:59N 34°35' E 135°26'0 0.0
2017-Dec-12 00:29N 34°35' E 135°26'0 0.0
2017-Dec-11 23:59N 34°35' E 135°26'2 4.1
2017-Dec-11 23:31N 34°36' E 135°24'4 8.5
2017-Dec-11 23:01N 34°35' E 135°19'0 0.7
2017-Dec-11 22:29N 34°35' E 135°18'0 0.0
2017-Dec-11 21:59N 34°35' E 135°18'0 0.0
2017-Dec-11 21:29N 34°35' E 135°18'0 0.0
2017-Dec-11 20:59N 34°35' E 135°18'0 0.0
2017-Dec-11 20:29N 34°35' E 135°18'0 0.1
2017-Dec-11 19:59N 34°35' E 135°18'0 0.0
2017-Dec-11 19:29N 34°35' E 135°18'0 0.0
2017-Dec-11 18:59N 34°35' E 135°18'0 0.1
2017-Dec-11 18:29N 34°35' E 135°18'0 0.1
2017-Dec-11 17:59N 34°35' E 135°18'0 0.1
2017-Dec-11 17:29N 34°35' E 135°18'0 0.1
2017-Dec-11 16:59N 34°35' E 135°18'0 0.0
2017-Dec-11 16:29N 34°35' E 135°18'0 0.1
2017-Dec-11 15:59N 34°35' E 135°18'0 0.0
2017-Dec-11 15:29N 34°35' E 135°18'0 0.0
2017-Dec-11 14:59N 34°35' E 135°18'0 0.0
2017-Dec-11 14:29N 34°35' E 135°18'0 0.0
2017-Dec-11 13:59N 34°35' E 135°18'0 0.1
2017-Dec-11 13:29N 34°35' E 135°18'0 0.1
2017-Dec-11 12:59N 34°35' E 135°18'0 0.1
2017-Dec-11 12:29N 34°35' E 135°18'0 0.1
2017-Dec-11 11:59N 34°35' E 135°18'0 0.1
2017-Dec-11 11:29N 34°35' E 135°18'0 0.0
2017-Dec-11 10:59N 34°35' E 135°18'0 0.1
2017-Dec-11 10:29N 34°35' E 135°18'0 0.1
2017-Dec-11 09:59N 34°35' E 135°18'0 0.0
2017-Dec-11 09:29N 34°35' E 135°18'0 0.0
2017-Dec-11 08:59N 34°35' E 135°18'0 0.1
2017-Dec-11 08:29N 34°35' E 135°18'0 0.0
2017-Dec-11 07:59N 34°35' E 135°18'0 0.1
2017-Dec-11 07:29N 34°35' E 135°18'0 0.1
2017-Dec-11 06:59N 34°35' E 135°18'0 0.1
2017-Dec-11 06:29N 34°35' E 135°18'0 0.1
2017-Dec-11 05:56N 34°35' E 135°18'0 0.0
2017-Dec-11 05:29N 34°35' E 135°18'0 0.1
2017-Dec-11 04:59N 34°35' E 135°18'0 0.0
2017-Dec-11 04:29N 34°35' E 135°18'0 0.1
2017-Dec-11 03:59N 34°35' E 135°18'0 0.0
2017-Dec-11 03:29N 34°35' E 135°18'0 0.0
2017-Dec-11 02:59N 34°35' E 135°18'0 0.0
2017-Dec-11 02:29N 34°35' E 135°18'0 0.1
2017-Dec-11 01:59N 34°35' E 135°18'0 0.0
2017-Dec-11 01:29N 34°35' E 135°18'0 0.0
2017-Dec-11 00:59N 34°35' E 135°18'2 3.1
2017-Dec-11 00:30N 34°34' E 135°17'510.8
2017-Dec-11 00:00N 34°30' E 135°13'510.6
2017-Dec-10 23:30N 34°26' E 135°09'510.4
2017-Dec-10 23:00N 34°22' E 135°04'510.5
2017-Dec-10 22:30N 34°18' E 135°00'4 8.8
2017-Dec-10 22:00N 34°14' E 134°60'510.3
2017-Dec-10 21:30N 34°09' E 135°00'510.1
2017-Dec-10 21:00N 34°04' E 135°01'510.5
2017-Dec-10 20:30N 33°58' E 135°02'510.0
2017-Dec-10 19:59N 33°53' E 135°02'4 9.0
2017-Dec-10 19:29N 33°49' E 135°05'105 8.1
2017-Dec-10 06:36N 34°34' E 137°00'3 9.2
2017-Dec-10 06:14N 34°37' E 136°58'310.9
2017-Dec-10 06:00N 34°39' E 136°58'511.1
2017-Dec-10 05:30N 34°44' E 136°59'510.8
2017-Dec-10 05:00N 34°50' E 136°56'2 4.5
2017-Dec-10 04:29N 34°52' E 136°56'0 0.0
2017-Dec-10 03:59N 34°52' E 136°56'0 0.0
2017-Dec-10 03:29N 34°52' E 136°56'0 0.0
2017-Dec-10 02:59N 34°52' E 136°56'0 0.0
2017-Dec-10 02:29N 34°52' E 136°56'0 0.0
2017-Dec-10 01:47N 34°52' E 136°56'0 0.0
2017-Dec-10 01:29N 34°52' E 136°56'0 0.0
2017-Dec-10 00:59N 34°52' E 136°56'0 0.0
2017-Dec-10 00:29N 34°52' E 136°56'0 0.3
2017-Dec-10 00:01N 34°52' E 136°56'3 6.5
2017-Dec-09 23:31N 34°49' E 136°57'510.8
2017-Dec-09 23:01N 34°44' E 136°59'611.2
2017-Dec-09 22:31N 34°38' E 136°59'510.5
2017-Dec-09 22:01N 34°33' E 137°01'711.4
2017-Dec-09 21:26N 34°33' E 137°09'510.9
2017-Dec-09 21:00N 34°33' E 137°15'510.9
2017-Dec-09 20:31N 34°33' E 137°22'44 9.9
2017-Dec-09 16:06N 34°33' E 138°15'1 8.4
2017-Dec-09 15:58N 34°33' E 138°16'5 9.0
2017-Dec-09 15:25N 34°33' E 138°22'4 8.8
2017-Dec-09 15:00N 34°33' E 138°26'4 8.4
2017-Dec-09 14:30N 34°34' E 138°32'4 7.4
2017-Dec-09 13:56N 34°34' E 138°37'3 7.3
2017-Dec-09 13:29N 34°35' E 138°40'4 8.0
2017-Dec-09 13:00N 34°35' E 138°45'4 8.0
2017-Dec-09 12:30N 34°35' E 138°50'4 7.7
2017-Dec-09 11:59N 34°35' E 138°55'6 9.7
2017-Dec-09 11:21N 34°39' E 139°01'411.1
2017-Dec-09 10:59N 34°42' E 139°03'510.6
2017-Dec-09 10:30N 34°47' E 139°07'711.0
2017-Dec-09 09:54N 34°52' E 139°11'411.1
2017-Dec-09 09:30N 34°55' E 139°16'510.0
2017-Dec-09 08:58N 34°58' E 139°21'4 9.2
2017-Dec-09 08:30N 34°60' E 139°26'4 8.7
2017-Dec-09 08:01N 35°02' E 139°30'5 9.8
2017-Dec-09 07:31N 35°04' E 139°36'611.1
2017-Dec-09 07:00N 35°07' E 139°41'611.4
2017-Dec-09 06:30N 35°12' E 139°45'510.2
2017-Dec-09 06:00N 35°17' E 139°45'510.5
2017-Dec-09 05:30N 35°22' E 139°42'510.9
2017-Dec-09 05:00N 35°27' E 139°43'1 2.0
2017-Dec-09 04:28N 35°28' E 139°43'0 0.0
2017-Dec-09 03:58N 35°28' E 139°43'0 0.0
2017-Dec-09 03:28N 35°28' E 139°43'0 0.0
2017-Dec-09 02:58N 35°28' E 139°43'0 0.0
2017-Dec-09 02:28N 35°28' E 139°43'0 0.0
2017-Dec-09 01:58N 35°28' E 139°43'0 0.0
2017-Dec-09 01:28N 35°28' E 139°43'0 0.0
2017-Dec-09 00:55N 35°28' E 139°43'0 0.0
2017-Dec-09 00:28N 35°28' E 139°43'0 0.0
2017-Dec-08 23:55N 35°28' E 139°43'0 0.3
2017-Dec-08 23:30N 35°28' E 139°43'2 4.6
2017-Dec-08 23:00N 35°27' E 139°45'4 7.6
2017-Dec-08 22:30N 35°29' E 139°50'4 7.4
2017-Dec-08 22:00N 35°31' E 139°53'4 7.4
2017-Dec-08 21:30N 35°33' E 139°57'3 6.7
2017-Dec-08 21:01N 35°34' E 140°01'5 9.4
2017-Dec-08 20:30N 35°33' E 140°07'0 0.1
2017-Dec-08 18:58N 35°33' E 140°07'0 0.0
2017-Dec-08 14:34N 35°33' E 140°07'0 0.0
2017-Dec-08 14:16N 35°33' E 140°07'0 0.0
2017-Dec-08 13:46N 35°33' E 140°07'0 0.0
2017-Dec-08 13:16N 35°33' E 140°07'0 0.0
2017-Dec-08 12:46N 35°33' E 140°07'0 0.0
2017-Dec-08 12:28N 35°33' E 140°07'0 0.0
2017-Dec-08 10:52N 35°33' E 140°07'0 0.0
2017-Dec-08 10:28N 35°33' E 140°07'2 5.3
2017-Dec-08 10:00N 35°33' E 140°04'2 3.7
2017-Dec-08 09:29N 35°34' E 140°02'0 0.0
2017-Dec-08 08:59N 35°34' E 140°02'0 0.1
2017-Dec-08 08:29N 35°34' E 140°02'0 0.0
2017-Dec-08 07:59N 35°34' E 140°02'0 0.0
2017-Dec-08 07:29N 35°34' E 140°02'0 0.0
2017-Dec-08 06:59N 35°34' E 140°02'0 0.1
2017-Dec-08 06:29N 35°34' E 140°02'0 0.0
2017-Dec-08 05:59N 35°34' E 140°02'0 0.0
2017-Dec-08 05:29N 35°34' E 140°02'0 0.0
2017-Dec-08 04:59N 35°34' E 140°02'  
Track history (hours):
 
Tides and Currents Weather Stations Pressure Air Temp Water Temp Dewpoint Dewpoint Depression Visibility Wind Speed Wind Dir Waves Ship Positions

Jfe Mercury

Last reported at 2017-Dec-18 04:51 UTC. Time now 2017-Dec-18 05:21 UTC.
Position N 34°46' E 139°06'.

Length 152 m; draft 4.1 m.

Type: Cargo ship. MMSI: 431000822.

Date/timePositionNaut miles runAvg speedWind from/ knotsBaromVisibWave heightAir tempDewpointWater temp
2017-Dec-18 04:51N 34°46' E 139°06'910.4
2017-Dec-18 04:02N 34°53' E 139°12'0 9.8
2017-Dec-18 04:00N 34°53' E 139°13'610.1
2017-Dec-18 03:27N 34°56' E 139°19'510.3
2017-Dec-18 03:00N 34°58' E 139°23'510.1
2017-Dec-18 02:31N 35°00' E 139°29'510.3
2017-Dec-18 02:01N 35°03' E 139°34'510.7
2017-Dec-18 01:30N 35°06' E 139°40'510.8
2017-Dec-18 01:00N 35°10' E 139°44'611.0
2017-Dec-18 00:30N 35°15' E 139°46'611.5
2017-Dec-18 00:01N 35°20' E 139°42'611.0
2017-Dec-17 23:31N 35°25' E 139°43'3 4.9
2017-Dec-17 22:58N 35°28' E 139°43'0 0.0
2017-Dec-17 22:28N 35°28' E 139°43'0 0.0
2017-Dec-17 22:01N 35°28' E 139°43'0 0.0
2017-Dec-17 21:28N 35°28' E 139°43'0 0.0
2017-Dec-17 20:58N 35°28' E 139°43'0 0.0
2017-Dec-17 20:28N 35°28' E 139°43'0 0.0
2017-Dec-17 19:58N 35°28' E 139°43'0 0.0
2017-Dec-17 19:28N 35°28' E 139°43'0 0.0
2017-Dec-17 18:58N 35°28' E 139°43'0 0.0
2017-Dec-17 18:28N 35°28' E 139°43'0 0.0
2017-Dec-17 17:58N 35°28' E 139°43'0 0.0
2017-Dec-17 17:28N 35°28' E 139°43'0 0.0
2017-Dec-17 16:59N 35°28' E 139°43'2 4.2
2017-Dec-17 16:31N 35°27' E 139°45'611.2
2017-Dec-17 16:01N 35°29' E 139°51'511.0
2017-Dec-17 15:31N 35°32' E 139°57'510.3
2017-Dec-17 15:00N 35°34' E 140°03'3 5.9
2017-Dec-17 14:30N 35°33' E 140°07'0 0.0
2017-Dec-17 13:55N 35°33' E 140°07'0 0.0
2017-Dec-17 12:43N 35°33' E 140°07'0 0.0
2017-Dec-17 12:25N 35°33' E 140°07'0 0.0
2017-Dec-17 11:01N 35°33' E 140°07'0 0.0
2017-Dec-17 10:55N 35°33' E 140°07'0 0.0
2017-Dec-17 10:13N 35°33' E 140°07'0 0.0
2017-Dec-17 09:55N 35°33' E 140°07'0 0.0
2017-Dec-17 09:01N 35°33' E 140°07'0 0.0
2017-Dec-17 08:37N 35°33' E 140°07'0 0.0
2017-Dec-17 08:25N 35°33' E 140°07'0 0.0
2017-Dec-17 07:31N 35°33' E 140°07'0 0.0
2017-Dec-17 07:07N 35°33' E 140°07'0 0.0
2017-Dec-17 06:37N 35°33' E 140°07'0 0.0
2017-Dec-17 06:25N 35°33' E 140°07'0 0.0
2017-Dec-17 05:49N 35°33' E 140°07'0 0.0
2017-Dec-17 05:19N 35°33' E 140°07'0 0.0
2017-Dec-17 04:55N 35°33' E 140°07'0 0.0
2017-Dec-17 04:28N 35°33' E 140°07'2 4.9
2017-Dec-17 04:00N 35°33' E 140°04'4 8.2
2017-Dec-17 03:30N 35°33' E 139°59'4 7.9
2017-Dec-17 03:00N 35°31' E 139°55'4 7.8
2017-Dec-17 02:30N 35°28' E 139°51'4 7.9
2017-Dec-17 02:00N 35°26' E 139°47'4 8.2
2017-Dec-17 01:30N 35°24' E 139°43'4 7.2
2017-Dec-17 01:01N 35°23' E 139°38'0 0.2
2017-Dec-17 00:29N 35°23' E 139°38'0 0.0
2017-Dec-16 23:59N 35°23' E 139°38'0 0.0
2017-Dec-16 23:29N 35°23' E 139°38'0 0.0
2017-Dec-16 22:59N 35°23' E 139°38'0 0.4
2017-Dec-16 22:30N 35°23' E 139°38'3 6.5
2017-Dec-16 22:00N 35°22' E 139°42'1 2.5
2017-Dec-16 21:29N 35°22' E 139°44'0 0.1
2017-Dec-16 20:59N 35°22' E 139°44'0 0.0
2017-Dec-16 20:29N 35°22' E 139°44'0 0.0
2017-Dec-16 19:59N 35°22' E 139°44'0 0.0
2017-Dec-16 19:29N 35°22' E 139°44'0 0.0
2017-Dec-16 18:59N 35°22' E 139°44'0 0.2
2017-Dec-16 18:29N 35°22' E 139°44'0 0.1
2017-Dec-16 17:59N 35°22' E 139°44'0 0.0
2017-Dec-16 17:29N 35°22' E 139°44'0 0.0
2017-Dec-16 16:59N 35°22' E 139°44'0 0.0
2017-Dec-16 16:29N 35°22' E 139°44'0 0.0
2017-Dec-16 15:59N 35°22' E 139°44'0 0.0
2017-Dec-16 15:29N 35°22' E 139°44'0 0.1
2017-Dec-16 14:59N 35°22' E 139°44'0 0.1
2017-Dec-16 14:29N 35°22' E 139°44'0 0.1
2017-Dec-16 13:59N 35°22' E 139°44'0 0.1
2017-Dec-16 13:29N 35°22' E 139°44'0 0.2
2017-Dec-16 12:59N 35°22' E 139°44'0 0.1
2017-Dec-16 12:29N 35°22' E 139°44'0 0.0
2017-Dec-16 11:59N 35°22' E 139°44'0 0.1
2017-Dec-16 11:29N 35°22' E 139°44'0 0.0
2017-Dec-16 10:59N 35°22' E 139°44'0 0.1
2017-Dec-16 10:29N 35°22' E 139°44'0 0.0
2017-Dec-16 09:59N 35°22' E 139°44'0 0.0
2017-Dec-16 09:29N 35°22' E 139°44'0 0.0
2017-Dec-16 08:59N 35°22' E 139°44'0 0.0
2017-Dec-16 08:26N 35°22' E 139°44'0 0.0
2017-Dec-16 07:59N 35°22' E 139°44'0 0.1
2017-Dec-16 07:29N 35°22' E 139°44'0 0.6
2017-Dec-16 07:00N 35°22' E 139°44'4 9.0
2017-Dec-16 06:31N 35°18' E 139°45'510.3
2017-Dec-16 06:01N 35°13' E 139°47'510.9
2017-Dec-16 05:31N 35°07' E 139°45'510.9
2017-Dec-16 05:00N 35°03' E 139°41'611.4
2017-Dec-16 04:30N 34°59' E 139°36'612.2
2017-Dec-16 03:59N 34°56' E 139°30'612.4
2017-Dec-16 03:30N 34°52' E 139°24'612.5
2017-Dec-16 03:00N 34°49' E 139°18'612.2
2017-Dec-16 02:29N 34°45' E 139°12'611.7
2017-Dec-16 02:01N 34°41' E 139°06'611.5
2017-Dec-16 01:28N 34°37' E 139°00'612.8
2017-Dec-16 01:01N 34°35' E 138°54'611.9
2017-Dec-16 00:30N 34°34' E 138°47'611.6
2017-Dec-15 23:58N 34°34' E 138°39'611.4
2017-Dec-15 23:29N 34°33' E 138°32'611.3
2017-Dec-15 22:59N 34°33' E 138°26'611.7
2017-Dec-15 22:30N 34°33' E 138°19'611.9
2017-Dec-15 21:59N 34°33' E 138°11'612.0
2017-Dec-15 21:29N 34°33' E 138°04'611.6
2017-Dec-15 20:58N 34°33' E 137°57'711.3
2017-Dec-15 20:19N 34°33' E 137°48'2010.8
2017-Dec-15 18:29N 34°32' E 137°24'510.6
2017-Dec-15 18:00N 34°32' E 137°18'510.6
2017-Dec-15 17:30N 34°32' E 137°11'710.2
2017-Dec-15 16:50N 34°32' E 137°03'3 9.2
2017-Dec-15 16:30N 34°34' E 136°60'5 9.1
2017-Dec-15 16:00N 34°38' E 136°58'510.4
2017-Dec-15 15:30N 34°43' E 136°59'510.8
2017-Dec-15 15:01N 34°48' E 136°57'3 1.4
2017-Dec-15 12:36N 34°52' E 136°56'0 0.0
2017-Dec-15 12:18N 34°52' E 136°56'0 0.0
2017-Dec-15 12:00N 34°52' E 136°56'0 0.0
2017-Dec-15 10:30N 34°52' E 136°56'0 0.0
2017-Dec-15 10:00N 34°52' E 136°56'0 0.0
2017-Dec-15 09:30N 34°52' E 136°56'0 0.0
2017-Dec-15 08:54N 34°52' E 136°56'0 0.0
2017-Dec-15 08:30N 34°52' E 136°56'0 0.0
2017-Dec-15 08:00N 34°52' E 136°56'2 4.2
2017-Dec-15 07:30N 34°50' E 136°57'610.5
2017-Dec-15 06:58N 34°45' E 136°59'510.6
2017-Dec-15 06:29N 34°39' E 136°59'510.2
2017-Dec-15 06:00N 34°34' E 136°60'105 8.1
2017-Dec-14 17:03N 33°45' E 135°08'311.5
2017-Dec-14 16:47N 33°47' E 135°05'411.3
2017-Dec-14 16:26N 33°50' E 135°02'511.4
2017-Dec-14 16:00N 33°54' E 134°59'1211.6
2017-Dec-14 15:00N 34°03' E 134°50'611.6
2017-Dec-14 14:31N 34°07' E 134°45'612.2
2017-Dec-14 14:00N 34°12' E 134°41'612.1
2017-Dec-14 13:30N 34°16' E 134°36'611.4
2017-Dec-14 13:00N 34°18' E 134°29'611.3
2017-Dec-14 12:30N 34°20' E 134°23'1011.4
2017-Dec-14 11:39N 34°24' E 134°12'211.6
2017-Dec-14 11:28N 34°25' E 134°10'5 0.1
2017-Dec-12 09:04N 34°27' E 134°04'9 9.7
2017-Dec-12 08:08N 34°24' E 134°14'210.3
2017-Dec-12 07:58N 34°24' E 134°16'510.3
2017-Dec-12 07:29N 34°25' E 134°22'510.5
2017-Dec-12 07:00N 34°27' E 134°28'510.5
2017-Dec-12 06:30N 34°29' E 134°34'510.4
2017-Dec-12 06:00N 34°31' E 134°39'510.4
2017-Dec-12 05:30N 34°33' E 134°45'510.5
2017-Dec-12 05:00N 34°35' E 134°51'510.4
2017-Dec-12 04:30N 34°37' E 134°57'5 9.2
2017-Dec-12 04:00N 34°36' E 135°03'5 9.1
2017-Dec-12 03:30N 34°36' E 135°08'5 9.7
2017-Dec-12 03:00N 34°36' E 135°14'5 9.8
2017-Dec-12 02:30N 34°37' E 135°20'5 9.1
2017-Dec-12 02:00N 34°36' E 135°25'0 0.6
2017-Dec-12 01:29N 34°35' E 135°26'0 0.0
2017-Dec-12 00:59N 34°35' E 135°26'0 0.0
2017-Dec-12 00:29N 34°35' E 135°26'0 0.0
2017-Dec-11 23:59N 34°35' E 135°26'2 4.1
2017-Dec-11 23:31N 34°36' E 135°24'4 8.5
2017-Dec-11 23:01N 34°35' E 135°19'0 0.7
2017-Dec-11 22:29N 34°35' E 135°18'0 0.0
2017-Dec-11 21:59N 34°35' E 135°18'0 0.0
2017-Dec-11 21:29N 34°35' E 135°18'0 0.0
2017-Dec-11 20:59N 34°35' E 135°18'0 0.0
2017-Dec-11 20:29N 34°35' E 135°18'0 0.1
2017-Dec-11 19:59N 34°35' E 135°18'0 0.0
2017-Dec-11 19:29N 34°35' E 135°18'0 0.0
2017-Dec-11 18:59N 34°35' E 135°18'0 0.1
2017-Dec-11 18:29N 34°35' E 135°18'0 0.1
2017-Dec-11 17:59N 34°35' E 135°18'0 0.1
2017-Dec-11 17:29N 34°35' E 135°18'0 0.1
2017-Dec-11 16:59N 34°35' E 135°18'0 0.0
2017-Dec-11 16:29N 34°35' E 135°18'0 0.1
2017-Dec-11 15:59N 34°35' E 135°18'0 0.0
2017-Dec-11 15:29N 34°35' E 135°18'0 0.0
2017-Dec-11 14:59N 34°35' E 135°18'0 0.0
2017-Dec-11 14:29N 34°35' E 135°18'0 0.0
2017-Dec-11 13:59N 34°35' E 135°18'0 0.1
2017-Dec-11 13:29N 34°35' E 135°18'0 0.1
2017-Dec-11 12:59N 34°35' E 135°18'0 0.1
2017-Dec-11 12:29N 34°35' E 135°18'0 0.1
2017-Dec-11 11:59N 34°35' E 135°18'0 0.1
2017-Dec-11 11:29N 34°35' E 135°18'0 0.0
2017-Dec-11 10:59N 34°35' E 135°18'0 0.1
2017-Dec-11 10:29N 34°35' E 135°18'0 0.1
2017-Dec-11 09:59N 34°35' E 135°18'0 0.0
2017-Dec-11 09:29N 34°35' E 135°18'0 0.0
2017-Dec-11 08:59N 34°35' E 135°18'0 0.1
2017-Dec-11 08:29N 34°35' E 135°18'0 0.0
2017-Dec-11 07:59N 34°35' E 135°18'0 0.1
2017-Dec-11 07:29N 34°35' E 135°18'0 0.1
2017-Dec-11 06:59N 34°35' E 135°18'0 0.1
2017-Dec-11 06:29N 34°35' E 135°18'0 0.1
2017-Dec-11 05:56N 34°35' E 135°18'0 0.0
2017-Dec-11 05:29N 34°35' E 135°18'0 0.1
2017-Dec-11 04:59N 34°35' E 135°18'0 0.0
2017-Dec-11 04:29N 34°35' E 135°18'0 0.1
2017-Dec-11 03:59N 34°35' E 135°18'0 0.0
2017-Dec-11 03:29N 34°35' E 135°18'0 0.0
2017-Dec-11 02:59N 34°35' E 135°18'0 0.0
2017-Dec-11 02:29N 34°35' E 135°18'0 0.1
2017-Dec-11 01:59N 34°35' E 135°18'0 0.0
2017-Dec-11 01:29N 34°35' E 135°18'0 0.0
2017-Dec-11 00:59N 34°35' E 135°18'2 3.1
2017-Dec-11 00:30N 34°34' E 135°17'510.8
2017-Dec-11 00:00N 34°30' E 135°13'510.6
2017-Dec-10 23:30N 34°26' E 135°09'510.4
2017-Dec-10 23:00N 34°22' E 135°04'510.5
2017-Dec-10 22:30N 34°18' E 135°00'4 8.8
2017-Dec-10 22:00N 34°14' E 134°60'510.3
2017-Dec-10 21:30N 34°09' E 135°00'510.1
2017-Dec-10 21:00N 34°04' E 135°01'510.5
2017-Dec-10 20:30N 33°58' E 135°02'510.0
2017-Dec-10 19:59N 33°53' E 135°02'4 9.0
2017-Dec-10 19:29N 33°49' E 135°05'105 8.1
2017-Dec-10 06:36N 34°34' E 137°00'3 9.2
2017-Dec-10 06:14N 34°37' E 136°58'310.9
2017-Dec-10 06:00N 34°39' E 136°58'511.1
2017-Dec-10 05:30N 34°44' E 136°59'510.8
2017-Dec-10 05:00N 34°50' E 136°56'2 4.5
2017-Dec-10 04:29N 34°52' E 136°56'0 0.0
2017-Dec-10 03:59N 34°52' E 136°56'0 0.0
2017-Dec-10 03:29N 34°52' E 136°56'0 0.0
2017-Dec-10 02:59N 34°52' E 136°56'0 0.0
2017-Dec-10 02:29N 34°52' E 136°56'0 0.0
2017-Dec-10 01:47N 34°52' E 136°56'0 0.0
2017-Dec-10 01:29N 34°52' E 136°56'0 0.0
2017-Dec-10 00:59N 34°52' E 136°56'0 0.0
2017-Dec-10 00:29N 34°52' E 136°56'0 0.3
2017-Dec-10 00:01N 34°52' E 136°56'3 6.5
2017-Dec-09 23:31N 34°49' E 136°57'510.8
2017-Dec-09 23:01N 34°44' E 136°59'611.2
2017-Dec-09 22:31N 34°38' E 136°59'510.5
2017-Dec-09 22:01N 34°33' E 137°01'711.4
2017-Dec-09 21:26N 34°33' E 137°09'510.9
2017-Dec-09 21:00N 34°33' E 137°15'510.9
2017-Dec-09 20:31N 34°33' E 137°22'44 9.9
2017-Dec-09 16:06N 34°33' E 138°15'1 8.4
2017-Dec-09 15:58N 34°33' E 138°16'5 9.0
2017-Dec-09 15:25N 34°33' E 138°22'4 8.8
2017-Dec-09 15:00N 34°33' E 138°26'4 8.4
2017-Dec-09 14:30N 34°34' E 138°32'4 7.4
2017-Dec-09 13:56N 34°34' E 138°37'3 7.3
2017-Dec-09 13:29N 34°35' E 138°40'4 8.0
2017-Dec-09 13:00N 34°35' E 138°45'4 8.0
2017-Dec-09 12:30N 34°35' E 138°50'4 7.7
2017-Dec-09 11:59N 34°35' E 138°55'6 9.7
2017-Dec-09 11:21N 34°39' E 139°01'411.1
2017-Dec-09 10:59N 34°42' E 139°03'510.6
2017-Dec-09 10:30N 34°47' E 139°07'711.0
2017-Dec-09 09:54N 34°52' E 139°11'411.1
2017-Dec-09 09:30N 34°55' E 139°16'510.0
2017-Dec-09 08:58N 34°58' E 139°21'4 9.2
2017-Dec-09 08:30N 34°60' E 139°26'4 8.7
2017-Dec-09 08:01N 35°02' E 139°30'5 9.8
2017-Dec-09 07:31N 35°04' E 139°36'611.1
2017-Dec-09 07:00N 35°07' E 139°41'611.4
2017-Dec-09 06:30N 35°12' E 139°45'510.2
2017-Dec-09 06:00N 35°17' E 139°45'510.5
2017-Dec-09 05:30N 35°22' E 139°42'510.9
2017-Dec-09 05:00N 35°27' E 139°43'1 2.0
2017-Dec-09 04:28N 35°28' E 139°43'0 0.0
2017-Dec-09 03:58N 35°28' E 139°43'0 0.0
2017-Dec-09 03:28N 35°28' E 139°43'0 0.0
2017-Dec-09 02:58N 35°28' E 139°43'0 0.0
2017-Dec-09 02:28N 35°28' E 139°43'0 0.0
2017-Dec-09 01:58N 35°28' E 139°43'0 0.0
2017-Dec-09 01:28N 35°28' E 139°43'0 0.0
2017-Dec-09 00:55N 35°28' E 139°43'0 0.0
2017-Dec-09 00:28N 35°28' E 139°43'0 0.0
2017-Dec-08 23:55N 35°28' E 139°43'0 0.3
2017-Dec-08 23:30N 35°28' E 139°43'2 4.6
2017-Dec-08 23:00N 35°27' E 139°45'4 7.6
2017-Dec-08 22:30N 35°29' E 139°50'4 7.4
2017-Dec-08 22:00N 35°31' E 139°53'4 7.4
2017-Dec-08 21:30N 35°33' E 139°57'3 6.7
2017-Dec-08 21:01N 35°34' E 140°01'5 9.4
2017-Dec-08 20:30N 35°33' E 140°07'0 0.1
2017-Dec-08 18:58N 35°33' E 140°07'0 0.0
2017-Dec-08 14:34N 35°33' E 140°07'0 0.0
2017-Dec-08 14:16N 35°33' E 140°07'0 0.0
2017-Dec-08 13:46N 35°33' E 140°07'0 0.0
2017-Dec-08 13:16N 35°33' E 140°07'0 0.0
2017-Dec-08 12:46N 35°33' E 140°07'0 0.0
2017-Dec-08 12:28N 35°33' E 140°07'0 0.0
2017-Dec-08 10:52N 35°33' E 140°07'0 0.0
2017-Dec-08 10:28N 35°33' E 140°07'2 5.3
2017-Dec-08 10:00N 35°33' E 140°04'2 3.7
2017-Dec-08 09:29N 35°34' E 140°02'0 0.0
2017-Dec-08 08:59N 35°34' E 140°02'0 0.1
2017-Dec-08 08:29N 35°34' E 140°02'0 0.0
2017-Dec-08 07:59N 35°34' E 140°02'0 0.0
2017-Dec-08 07:29N 35°34' E 140°02'0 0.0
2017-Dec-08 06:59N 35°34' E 140°02'0 0.1
2017-Dec-08 06:29N 35°34' E 140°02'0 0.0
2017-Dec-08 05:59N 35°34' E 140°02'0 0.0
2017-Dec-08 05:29N 35°34' E 140°02'0 0.0
2017-Dec-08 04:59N 35°34' E 140°02'  

Dump ship's entire track history